createdAt,value
2022-10-29T00:13:07.288Z,16.55
2022-10-29T00:21:14.979Z,14.90
2022-10-29T00:29:22.830Z,17.25
2022-10-29T00:37:28.074Z,14.90
2022-10-29T00:45:35.990Z,17.10
2022-10-29T00:53:45.269Z,18.77
2022-10-29T01:01:54.155Z,18.83
2022-10-29T01:09:59.970Z,17.50
2022-10-29T01:18:20.542Z,16.50
2022-10-29T01:26:50.812Z,17.15
2022-10-29T01:35:03.329Z,16.40
2022-10-29T01:43:14.981Z,15.40
2022-10-29T01:51:26.155Z,15.43
2022-10-29T01:59:43.269Z,13.18
2022-10-29T02:08:05.376Z,13.18
2022-10-29T02:16:12.359Z,13.30
2022-10-29T02:24:20.290Z,13.50
2022-10-29T02:32:25.552Z,17.75
2022-10-29T02:40:33.466Z,15.52
2022-10-29T02:48:38.724Z,14.45
2022-10-29T02:56:46.593Z,14.00
2022-10-29T03:04:52.293Z,14.40
2022-10-29T03:13:02.362Z,14.52
2022-10-29T03:21:07.875Z,11.00
2022-10-29T03:29:15.744Z,10.65
2022-10-29T03:37:21.012Z,8.60
2022-10-29T03:45:29.084Z,9.40
2022-10-29T03:53:34.680Z,10.98
2022-10-29T04:01:43.496Z,11.70
2022-10-29T04:09:48.887Z,10.65
2022-10-29T04:17:57.104Z,9.35
2022-10-29T04:28:36.788Z,9.35
2022-10-29T04:34:31.188Z,9.25
2022-10-29T04:42:39.600Z,8.88
2022-10-29T04:50:47.475Z,9.02
2022-10-29T04:58:55.329Z,8.45
2022-10-29T05:07:03.195Z,8.50
2022-10-29T05:15:09.900Z,8.63
2022-10-29T05:23:17.888Z,8.07
2022-10-29T06:31:31.148Z,10.43
2022-10-29T06:39:36.440Z,9.05
2022-10-29T06:47:48.379Z,8.52
2022-10-29T06:55:53.603Z,10.20
2022-10-29T07:04:01.845Z,9.43
2022-10-29T07:12:07.403Z,11.50
2022-10-29T07:20:15.708Z,13.82
2022-10-29T07:28:23.836Z,12.32
2022-10-29T07:36:33.605Z,10.77
2022-10-29T07:44:38.833Z,9.95
2022-10-29T07:52:48.326Z,7.38
2022-10-29T08:00:54.105Z,7.18
2022-10-29T08:09:02.019Z,7.68
2022-10-29T08:17:07.283Z,7.57
2022-10-29T08:25:17.154Z,7.07
2022-10-29T08:33:22.469Z,7.20
2022-10-29T08:41:40.271Z,6.25
2022-10-29T08:49:49.614Z,6.15
2022-10-29T08:58:00.301Z,4.75
2022-10-29T09:06:13.096Z,4.82
2022-10-29T09:14:39.688Z,5.78
2022-10-29T09:22:52.893Z,8.30
2022-10-29T09:31:10.038Z,5.80
2022-10-29T09:39:20.716Z,5.03
2022-10-29T09:47:41.741Z,5.07
2022-10-29T09:55:53.738Z,4.95
2022-10-29T10:04:09.157Z,5.43
2022-10-29T10:12:15.390Z,5.38
2022-10-29T10:20:34.920Z,4.78
2022-10-29T10:28:40.201Z,3.78
2022-10-29T10:36:52.073Z,4.03
2022-10-29T10:45:01.823Z,3.53
2022-10-29T10:53:20.464Z,3.95
2022-10-29T11:01:31.445Z,3.67
2022-10-29T11:09:43.272Z,3.40
2022-10-29T11:17:54.706Z,3.17
2022-10-29T11:26:08.725Z,3.05
2022-10-29T11:34:18.482Z,3.70
2022-10-29T11:42:26.909Z,3.10
2022-10-29T11:50:41.901Z,3.28
2022-10-29T11:59:00.416Z,4.00
2022-10-29T12:07:25.491Z,2.45
2022-10-29T12:15:39.927Z,4.45
2022-10-29T12:23:56.734Z,2.97
2022-10-29T12:32:13.176Z,2.75
2022-10-29T12:40:22.839Z,2.97
2022-10-29T12:48:41.642Z,3.22
2022-10-29T12:56:49.496Z,3.20
2022-10-29T13:05:21.372Z,3.08
2022-10-29T13:13:45.382Z,2.70
2022-10-29T13:22:25.312Z,4.05
2022-10-29T13:30:32.765Z,2.67
2022-10-29T13:38:58.599Z,4.28
2022-10-29T13:47:22.815Z,3.40
2022-10-29T13:55:35.187Z,3.63
2022-10-29T14:03:54.429Z,49.67
2022-10-29T14:12:09.844Z,18.95
2022-10-29T14:20:26.766Z,8.15
2022-10-29T14:28:35.626Z,5.10
2022-10-29T14:36:43.742Z,4.60
2022-10-29T14:44:56.100Z,5.10
2022-10-29T14:53:04.565Z,8.20
2022-10-29T15:01:20.616Z,8.38
2022-10-29T15:09:29.890Z,9.70
2022-10-29T15:17:38.917Z,7.90
2022-10-29T15:25:46.945Z,9.55
2022-10-29T15:33:57.904Z,18.02
2022-10-29T15:42:03.979Z,17.45
2022-10-29T15:50:15.650Z,14.32
2022-10-29T15:58:23.911Z,14.18
2022-10-29T16:06:31.837Z,15.48
2022-10-29T16:14:37.074Z,14.75
2022-10-29T16:22:45.024Z,14.98
2022-10-29T16:30:56.214Z,16.17
2022-10-29T16:39:04.099Z,24.75
2022-10-29T16:47:09.349Z,30.25
2022-10-29T16:55:17.855Z,33.97
2022-10-29T17:03:23.213Z,35.15
2022-10-29T17:11:31.072Z,32.90
2022-10-29T17:19:36.503Z,28.63
2022-10-29T17:27:45.112Z,20.95
2022-10-29T17:35:50.509Z,22.83
2022-10-29T17:43:59.004Z,21.40
2022-10-29T17:52:04.232Z,23.60
2022-10-29T18:00:13.941Z,23.75
2022-10-29T18:08:19.219Z,28.05
2022-10-29T18:16:29.154Z,28.95
2022-10-29T18:24:34.430Z,28.85
2022-10-29T18:32:42.358Z,28.25
2022-10-29T18:40:47.622Z,26.58
2022-10-29T18:48:55.970Z,23.63
2022-10-29T18:57:01.219Z,21.75
2022-10-29T19:05:10.097Z,23.88
2022-10-29T19:13:15.439Z,24.35
2022-10-29T19:21:23.304Z,27.02
2022-10-29T19:29:28.708Z,24.17
2022-10-29T19:37:36.577Z,32.45
2022-10-29T19:45:42.492Z,31.17
2022-10-29T19:53:51.566Z,31.17
2022-10-29T20:01:57.003Z,29.55
2022-10-29T20:10:05.200Z,25.08
2022-10-29T20:18:10.460Z,29.33
2022-10-29T20:26:18.504Z,25.05
2022-10-29T20:34:23.960Z,26.85
2022-10-29T20:42:31.816Z,28.95
2022-10-29T20:50:37.246Z,26.88
2022-10-29T20:58:45.168Z,28.05
2022-10-29T21:06:50.436Z,29.48
2022-10-29T21:14:58.347Z,26.05
2022-10-29T21:23:03.605Z,26.88
2022-10-29T21:31:11.847Z,25.58
2022-10-29T21:39:17.155Z,24.80
2022-10-29T21:47:24.983Z,26.02
2022-10-29T21:55:30.471Z,24.77
2022-10-29T22:03:41.551Z,28.65
2022-10-29T22:11:46.878Z,31.02
2022-10-29T22:19:54.727Z,30.58
2022-10-29T22:28:00.444Z,31.63
2022-10-29T22:36:14.665Z,29.40
2022-10-29T22:44:19.925Z,25.77
2022-10-29T22:52:27.859Z,27.90
2022-10-29T23:00:33.142Z,27.45
2022-10-29T23:08:41.268Z,23.13
2022-10-29T23:16:46.555Z,25.17
2022-10-29T23:24:54.611Z,27.85
2022-10-29T23:33:00.148Z,21.73
2022-10-29T23:41:11.443Z,19.00
2022-10-29T23:49:16.755Z,16.73
2022-10-29T23:57:24.653Z,15.70
